Time,TemperatureF,DewpointF,PressureIn,WindDirection,WindDirectionDegrees,WindSpeedMPH,WindSpeedGustMPH,Humidity,HourlyPrecipIn,Conditions,Clouds,dailyrainin,SolarRadiationWatts/m^2,SoftwareType,DateUTC
2013-01-22 00:05:00,43.0,9.0,29.52,ESE,121,5.0,17.0,24,0.00,,,0.00,0.000000,,2013-01-22 05:05:00,
2013-01-22 00:12:00,43.0,9.0,29.52,ESE,121,5.0,17.0,24,0.00,,,0.00,0.000000,,2013-01-22 05:12:00,
2013-01-22 00:43:00,42.0,10.0,29.53,WNW,286,5.0,13.0,26,0.00,,,0.00,0.000000,,2013-01-22 05:43:00,
2013-01-22 00:53:00,42.0,10.0,29.53,WNW,286,5.0,13.0,26,0.00,,,0.00,0.000000,,2013-01-22 05:53:00,
2013-01-22 01:02:00,42.0,10.0,29.53,WNW,286,5.0,13.0,26,0.00,,,0.00,0.000000,,2013-01-22 06:02:00,
2013-01-22 01:12:00,42.0,10.0,29.53,WNW,286,5.0,13.0,26,0.00,,,0.00,0.000000,,2013-01-22 06:12:00,
2013-01-22 01:33:00,36.0,8.0,29.54,West,272,2.0,11.0,30,0.00,,,0.00,0.000000,,2013-01-22 06:33:00,
2013-01-22 01:43:00,36.0,8.0,29.54,West,272,2.0,11.0,30,0.00,,,0.00,0.000000,,2013-01-22 06:43:00,
2013-01-22 01:53:00,36.0,8.0,29.54,West,272,2.0,11.0,30,0.00,,,0.00,0.000000,,2013-01-22 06:53:00,
2013-01-22 02:02:00,36.0,8.0,29.54,West,272,2.0,11.0,30,0.00,,,0.00,0.000000,,2013-01-22 07:02:00,
2013-01-22 02:12:00,36.0,8.0,29.54,West,272,2.0,11.0,30,0.00,,,0.00,0.000000,,2013-01-22 07:12:00,
2013-01-22 02:33:00,37.0,7.0,29.57,NE,38,5.0,12.0,28,0.00,,,0.00,0.000000,,2013-01-22 07:33:00,
2013-01-22 02:43:00,37.0,7.0,29.57,NE,38,5.0,12.0,28,0.00,,,0.00,0.000000,,2013-01-22 07:43:00,
2013-01-22 02:53:00,37.0,7.0,29.57,NE,38,5.0,12.0,28,0.00,,,0.00,0.000000,,2013-01-22 07:53:00,
2013-01-22 03:02:00,37.0,7.0,29.57,NE,38,5.0,12.0,28,0.00,,,0.00,0.000000,,2013-01-22 08:02:00,
2013-01-22 03:12:00,37.0,7.0,29.57,NE,38,5.0,12.0,28,0.00,,,0.00,0.000000,,2013-01-22 08:12:00,
2013-01-22 03:43:00,34.0,5.0,29.59,NW,318,5.0,13.0,29,0.00,,,0.00,0.000000,,2013-01-22 08:43:00,
2013-01-22 03:53:00,34.0,5.0,29.59,NW,318,5.0,13.0,29,0.00,,,0.00,0.000000,,2013-01-22 08:53:00,
2013-01-22 04:02:00,34.0,5.0,29.59,NW,318,5.0,13.0,29,0.00,,,0.00,0.000000,,2013-01-22 09:02:00,
2013-01-22 04:12:00,34.0,5.0,29.59,NW,318,5.0,13.0,29,0.00,,,0.00,0.000000,,2013-01-22 09:12:00,
2013-01-22 04:33:00,32.0,3.0,29.61,NW,323,4.0,12.0,28,0.00,,,0.00,0.000000,,2013-01-22 09:33:00,
2013-01-22 04:43:00,32.0,3.0,29.61,NW,323,4.0,12.0,28,0.00,,,0.00,0.000000,,2013-01-22 09:43:00,
2013-01-22 04:53:00,32.0,3.0,29.61,NW,323,4.0,12.0,28,0.00,,,0.00,0.000000,,2013-01-22 09:53:00,
2013-01-22 05:03:00,32.0,3.0,29.61,NW,323,4.0,12.0,28,0.00,,,0.00,0.000000,,2013-01-22 10:03:00,
2013-01-22 05:12:00,32.0,3.0,29.61,NW,323,4.0,12.0,28,0.00,,,0.00,0.000000,,2013-01-22 10:12:00,
2013-01-22 05:43:00,32.0,0.0,29.64,NNW,332,6.0,16.0,25,0.00,,,0.00,0.000000,,2013-01-22 10:43:00,
2013-01-22 05:53:00,32.0,0.0,29.64,NNW,332,6.0,16.0,25,0.00,,,0.00,0.000000,,2013-01-22 10:53:00,
2013-01-22 06:02:00,32.0,0.0,29.64,NNW,332,6.0,16.0,25,0.00,,,0.00,0.000000,,2013-01-22 11:02:00,
2013-01-22 06:12:00,32.0,0.0,29.64,NNW,332,6.0,16.0,25,0.00,,,0.00,0.000000,,2013-01-22 11:12:00,
2013-01-22 06:33:00,31.0,-2.0,29.67,NW,325,6.0,16.0,24,0.00,,,0.00,0.000000,,2013-01-22 11:33:00,
2013-01-22 06:43:00,31.0,-2.0,29.67,NW,325,6.0,16.0,24,0.00,,,0.00,0.000000,,2013-01-22 11:43:00,
2013-01-22 06:54:00,31.0,-2.0,29.67,NW,325,6.0,16.0,24,0.00,,,0.00,0.000000,,2013-01-22 11:54:00,
2013-01-22 07:04:00,31.0,-2.0,29.67,NW,325,6.0,16.0,24,0.00,,,0.00,0.000000,,2013-01-22 12:04:00,
2013-01-22 07:13:00,31.0,-2.0,29.67,NW,325,6.0,16.0,24,0.00,,,0.00,0.000000,,2013-01-22 12:13:00,
2013-01-22 07:43:00,29.0,-4.0,29.72,NW,314,4.0,13.0,23,0.00,,,0.00,0.000000,,2013-01-22 12:43:00,
2013-01-22 07:53:00,29.0,-4.0,29.72,NW,314,4.0,13.0,23,0.00,,,0.00,0.000000,,2013-01-22 12:53:00,
2013-01-22 08:04:00,29.0,-4.0,29.72,NW,314,4.0,13.0,23,0.00,,,0.00,0.000000,,2013-01-22 13:04:00,
2013-01-22 08:14:00,29.0,-4.0,29.72,NW,314,4.0,13.0,23,0.00,,,0.00,0.000000,,2013-01-22 13:14:00,
2013-01-22 08:34:00,31.0,1.0,29.74,North,353,6.0,12.0,27,0.00,,,0.00,39.000000,,2013-01-22 13:34:00,
2013-01-22 08:43:00,31.0,1.0,29.74,North,353,6.0,12.0,27,0.00,,,0.00,39.000000,,2013-01-22 13:43:00,
2013-01-22 08:54:00,31.0,1.0,29.74,North,353,6.0,12.0,27,0.00,,,0.00,39.000000,,2013-01-22 13:54:00,
2013-01-22 09:03:00,31.0,1.0,29.74,North,353,6.0,12.0,27,0.00,,,0.00,39.000000,,2013-01-22 14:03:00,
2013-01-22 09:13:00,31.0,1.0,29.74,North,353,6.0,12.0,27,0.00,,,0.00,39.000000,,2013-01-22 14:13:00,
2013-01-22 09:44:00,33.0,-2.0,29.77,NNW,343,7.0,16.0,22,0.00,,,0.00,206.000000,,2013-01-22 14:44:00,
2013-01-22 09:54:00,33.0,-2.0,29.77,NNW,343,7.0,16.0,22,0.00,,,0.00,206.000000,,2013-01-22 14:54:00,
2013-01-22 10:04:00,33.0,-2.0,29.77,NNW,343,7.0,16.0,22,0.00,,,0.00,206.000000,,2013-01-22 15:04:00,
2013-01-22 10:13:00,33.0,-2.0,29.77,NNW,343,7.0,16.0,22,0.00,,,0.00,206.000000,,2013-01-22 15:13:00,
2013-01-22 10:44:00,35.0,-3.0,29.78,NW,321,8.0,20.0,19,0.00,,,0.00,383.000000,,2013-01-22 15:44:00,
2013-01-22 10:54:00,35.0,-3.0,29.78,NW,321,8.0,20.0,19,0.00,,,0.00,383.000000,,2013-01-22 15:54:00,
2013-01-22 11:04:00,35.0,-3.0,29.78,NW,321,8.0,20.0,19,0.00,,,0.00,383.000000,,2013-01-22 16:04:00,
2013-01-22 11:13:00,35.0,-3.0,29.78,NW,321,8.0,20.0,19,0.00,,,0.00,383.000000,,2013-01-22 16:13:00,
2013-01-22 11:43:00,34.0,-7.0,29.79,NW,318,9.0,20.0,16,0.00,,,0.00,452.000000,,2013-01-22 16:43:00,
2013-01-22 11:54:00,34.0,-7.0,29.79,NW,318,9.0,20.0,16,0.00,,,0.00,452.000000,,2013-01-22 16:54:00,
2013-01-22 12:04:00,34.0,-7.0,29.79,NW,318,9.0,20.0,16,0.00,,,0.00,452.000000,,2013-01-22 17:04:00,
2013-01-22 12:13:00,34.0,-7.0,29.79,NW,318,9.0,20.0,16,0.00,,,0.00,452.000000,,2013-01-22 17:13:00,
2013-01-22 12:44:00,35.0,-9.0,29.76,WNW,300,7.0,21.0,14,0.00,,,0.00,210.000000,,2013-01-22 17:44:00,
2013-01-22 12:54:00,35.0,-9.0,29.76,WNW,300,7.0,21.0,14,0.00,,,0.00,210.000000,,2013-01-22 17:54:00,
2013-01-22 13:04:00,35.0,-9.0,29.76,WNW,300,7.0,21.0,14,0.00,,,0.00,210.000000,,2013-01-22 18:04:00,
2013-01-22 13:13:00,35.0,-9.0,29.76,WNW,300,7.0,21.0,14,0.00,,,0.00,210.000000,,2013-01-22 18:13:00,
2013-01-22 13:34:00,38.0,-8.0,29.74,NW,306,9.0,20.0,13,0.00,,,0.00,298.000000,,2013-01-22 18:34:00,
2013-01-22 13:44:00,38.0,-8.0,29.74,NW,306,9.0,20.0,13,0.00,,,0.00,298.000000,,2013-01-22 18:44:00,
2013-01-22 13:54:00,38.0,-8.0,29.74,NW,306,9.0,20.0,13,0.00,,,0.00,298.000000,,2013-01-22 18:54:00,
2013-01-22 14:04:00,38.0,-8.0,29.74,NW,306,9.0,20.0,13,0.00,,,0.00,298.000000,,2013-01-22 19:04:00,
2013-01-22 14:13:00,38.0,-8.0,29.74,NW,306,9.0,20.0,13,0.00,,,0.00,298.000000,,2013-01-22 19:13:00,
2013-01-22 14:44:00,37.0,-14.0,29.74,NW,315,8.0,22.0,10,0.00,,,0.00,545.000000,,2013-01-22 19:44:00,
2013-01-22 14:54:00,37.0,-14.0,29.74,NW,315,8.0,22.0,10,0.00,,,0.00,545.000000,,2013-01-22 19:54:00,
2013-01-22 15:03:00,37.0,-14.0,29.74,NW,315,8.0,22.0,10,0.00,,,0.00,545.000000,,2013-01-22 20:03:00,
2013-01-22 15:13:00,37.0,-14.0,29.74,NW,315,8.0,22.0,10,0.00,,,0.00,545.000000,,2013-01-22 20:13:00,
2013-01-22 15:43:00,39.0,-13.0,29.73,WNW,292,6.0,21.0,10,0.00,,,0.00,453.000000,,2013-01-22 20:43:00,
2013-01-22 15:54:00,39.0,-13.0,29.73,WNW,292,6.0,21.0,10,0.00,,,0.00,453.000000,,2013-01-22 20:54:00,
2013-01-22 16:04:00,39.0,-13.0,29.73,WNW,292,6.0,21.0,10,0.00,,,0.00,453.000000,,2013-01-22 21:04:00,
2013-01-22 16:13:00,39.0,-13.0,29.73,WNW,292,6.0,21.0,10,0.00,,,0.00,453.000000,,2013-01-22 21:13:00,
2013-01-22 16:43:00,39.0,-13.0,29.74,WNW,303,4.0,18.0,10,0.00,,,0.00,304.000000,,2013-01-22 21:43:00,
2013-01-22 16:53:00,39.0,-13.0,29.74,WNW,303,4.0,18.0,10,0.00,,,0.00,304.000000,,2013-01-22 21:53:00,
2013-01-22 17:03:00,39.0,-13.0,29.74,WNW,303,4.0,18.0,10,0.00,,,0.00,304.000000,,2013-01-22 22:03:00,
2013-01-22 17:13:00,39.0,-13.0,29.74,WNW,303,4.0,18.0,10,0.00,,,0.00,304.000000,,2013-01-22 22:13:00,
2013-01-22 17:43:00,36.0,-12.0,29.75,WNW,300,5.0,19.0,12,0.00,,,0.00,128.000000,,2013-01-22 22:43:00,
2013-01-22 17:53:00,36.0,-12.0,29.75,WNW,300,5.0,19.0,12,0.00,,,0.00,128.000000,,2013-01-22 22:53:00,
2013-01-22 18:03:00,36.0,-12.0,29.75,WNW,300,5.0,19.0,12,0.00,,,0.00,128.000000,,2013-01-22 23:03:00,
2013-01-22 18:12:00,36.0,-12.0,29.75,WNW,300,5.0,19.0,12,0.00,,,0.00,128.000000,,2013-01-22 23:12:00,
2013-01-22 18:43:00,29.0,-8.0,29.77,NNE,14,1.0,9.0,19,0.00,,,0.00,3.000000,,2013-01-22 23:43:00,
2013-01-22 18:53:00,29.0,-8.0,29.77,NNE,14,1.0,9.0,19,0.00,,,0.00,3.000000,,2013-01-22 23:53:00,
2013-01-22 19:03:00,29.0,-8.0,29.77,NNE,14,1.0,9.0,19,0.00,,,0.00,3.000000,,2013-01-23 00:03:00,
2013-01-22 19:13:00,29.0,-8.0,29.77,NNE,14,1.0,9.0,19,0.00,,,0.00,3.000000,,2013-01-23 00:13:00,
2013-01-22 19:43:00,27.0,-4.0,29.78,NNW,335,2.0,5.0,25,0.00,,,0.00,0.000000,,2013-01-23 00:43:00,
2013-01-22 19:53:00,27.0,-4.0,29.78,NNW,335,2.0,5.0,25,0.00,,,0.00,0.000000,,2013-01-23 00:53:00,
2013-01-22 20:03:00,27.0,-4.0,29.78,NNW,335,2.0,5.0,25,0.00,,,0.00,0.000000,,2013-01-23 01:03:00,
2013-01-22 20:13:00,27.0,-4.0,29.78,NNW,335,2.0,5.0,25,0.00,,,0.00,0.000000,,2013-01-23 01:13:00,
2013-01-22 20:43:00,27.0,-5.0,29.79,North,351,3.0,5.0,24,0.00,,,0.00,0.000000,,2013-01-23 01:43:00,
2013-01-22 20:53:00,27.0,-5.0,29.79,North,351,3.0,5.0,24,0.00,,,0.00,0.000000,,2013-01-23 01:53:00,
2013-01-22 21:03:00,27.0,-5.0,29.79,North,351,3.0,5.0,24,0.00,,,0.00,0.000000,,2013-01-23 02:03:00,
2013-01-22 21:13:00,27.0,-5.0,29.79,North,351,3.0,5.0,24,0.00,,,0.00,0.000000,,2013-01-23 02:13:00,
2013-01-22 21:43:00,27.0,-5.0,29.80,NNW,328,2.0,6.0,24,0.00,,,0.00,0.000000,,2013-01-23 02:43:00,
2013-01-22 21:54:00,27.0,-5.0,29.80,NNW,328,2.0,6.0,24,0.00,,,0.00,0.000000,,2013-01-23 02:54:00,
2013-01-22 22:03:00,27.0,-5.0,29.80,NNW,328,2.0,6.0,24,0.00,,,0.00,0.000000,,2013-01-23 03:03:00,
2013-01-22 22:13:00,27.0,-5.0,29.80,NNW,328,2.0,6.0,24,0.00,,,0.00,0.000000,,2013-01-23 03:13:00,
2013-01-22 22:33:00,24.0,-3.0,29.82,NNE,18,2.0,6.0,30,0.00,,,0.00,0.000000,,2013-01-23 03:33:00,
2013-01-22 22:43:00,24.0,-3.0,29.82,NNE,18,2.0,6.0,30,0.00,,,0.00,0.000000,,2013-01-23 03:43:00,
2013-01-22 22:53:00,24.0,-3.0,29.82,NNE,18,2.0,6.0,30,0.00,,,0.00,0.000000,,2013-01-23 03:53:00,
2013-01-22 23:03:00,24.0,-3.0,29.82,NNE,18,2.0,6.0,30,0.00,,,0.00,0.000000,,2013-01-23 04:03:00,
2013-01-22 23:13:00,24.0,-3.0,29.82,NNE,18,2.0,6.0,30,0.00,,,0.00,0.000000,,2013-01-23 04:13:00,
2013-01-22 23:33:00,24.0,2.0,29.83,North,3,2.0,5.0,37,0.00,,,0.00,0.000000,,2013-01-23 04:33:00,
2013-01-22 23:43:00,24.0,2.0,29.83,North,3,2.0,5.0,37,0.00,,,0.00,0.000000,,2013-01-23 04:43:00,
2013-01-22 23:53:00,24.0,2.0,29.83,North,3,2.0,5.0,37,0.00,,,0.00,0.000000,,2013-01-23 04:53:00,